sensor_id;sensor_type;location;lat;lon;timestamp;temperature;humidity
8099;DHT22;4092;47.876;9.372;2022-12-07T00:01:27;2.50;99.90
8099;DHT22;4092;47.876;9.372;2022-12-07T00:03:56;2.50;99.90
8099;DHT22;4092;47.876;9.372;2022-12-07T00:06:31;2.50;99.90
8099;DHT22;4092;47.876;9.372;2022-12-07T00:08:59;2.50;99.90
8099;DHT22;4092;47.876;9.372;2022-12-07T00:11:26;2.50;99.90
8099;DHT22;4092;47.876;9.372;2022-12-07T00:13:55;2.50;99.90
8099;DHT22;4092;47.876;9.372;2022-12-07T00:16:24;2.50;99.90
8099;DHT22;4092;47.876;9.372;2022-12-07T00:18:51;2.40;99.90
8099;DHT22;4092;47.876;9.372;2022-12-07T00:21:21;2.40;99.90
8099;DHT22;4092;47.876;9.372;2022-12-07T00:23:51;2.40;99.90
8099;DHT22;4092;47.876;9.372;2022-12-07T00:26:19;2.30;99.90
8099;DHT22;4092;47.876;9.372;2022-12-07T00:28:47;2.30;99.90
8099;DHT22;4092;47.876;9.372;2022-12-07T00:31:16;2.30;99.90
8099;DHT22;4092;47.876;9.372;2022-12-07T00:33:43;2.30;99.90
8099;DHT22;4092;47.876;9.372;2022-12-07T00:36:12;2.30;99.90
8099;DHT22;4092;47.876;9.372;2022-12-07T00:38:40;2.30;99.90
8099;DHT22;4092;47.876;9.372;2022-12-07T00:41:11;2.30;99.90
8099;DHT22;4092;47.876;9.372;2022-12-07T00:43:39;2.20;99.90
8099;DHT22;4092;47.876;9.372;2022-12-07T00:46:06;2.20;99.90
8099;DHT22;4092;47.876;9.372;2022-12-07T00:48:34;2.20;99.90
8099;DHT22;4092;47.876;9.372;2022-12-07T00:51:01;2.10;99.90
8099;DHT22;4092;47.876;9.372;2022-12-07T00:53:28;2.10;99.90
8099;DHT22;4092;47.876;9.372;2022-12-07T00:55:56;2.10;99.90
8099;DHT22;4092;47.876;9.372;2022-12-07T00:58:24;2.10;99.90
8099;DHT22;4092;47.876;9.372;2022-12-07T01:00:51;2.10;99.90
8099;DHT22;4092;47.876;9.372;2022-12-07T01:03:18;2.10;99.90
8099;DHT22;4092;47.876;9.372;2022-12-07T01:05:50;2.10;99.90
8099;DHT22;4092;47.876;9.372;2022-12-07T01:08:17;2.10;99.90
8099;DHT22;4092;47.876;9.372;2022-12-07T01:10:44;2.10;99.90
8099;DHT22;4092;47.876;9.372;2022-12-07T01:13:11;2.10;99.90
8099;DHT22;4092;47.876;9.372;2022-12-07T01:15:40;2.10;99.90
8099;DHT22;4092;47.876;9.372;2022-12-07T01:18:08;2.10;99.90
8099;DHT22;4092;47.876;9.372;2022-12-07T01:20:35;2.10;99.90
8099;DHT22;4092;47.876;9.372;2022-12-07T01:23:02;2.10;99.90
8099;DHT22;4092;47.876;9.372;2022-12-07T01:25:29;2.10;99.90
8099;DHT22;4092;47.876;9.372;2022-12-07T01:27:56;2.00;99.90
8099;DHT22;4092;47.876;9.372;2022-12-07T01:30:24;2.00;99.90
8099;DHT22;4092;47.876;9.372;2022-12-07T01:32:52;2.00;99.90
8099;DHT22;4092;47.876;9.372;2022-12-07T01:35:19;2.00;99.90
8099;DHT22;4092;47.876;9.372;2022-12-07T01:37:46;2.00;99.90
8099;DHT22;4092;47.876;9.372;2022-12-07T01:40:13;2.10;99.90
8099;DHT22;4092;47.876;9.372;2022-12-07T01:42:40;2.10;99.90
8099;DHT22;4092;47.876;9.372;2022-12-07T01:48:14;2.10;99.90
8099;DHT22;4092;47.876;9.372;2022-12-07T01:50:44;2.10;99.90
8099;DHT22;4092;47.876;9.372;2022-12-07T01:53:12;2.00;99.90
8099;DHT22;4092;47.876;9.372;2022-12-07T01:55:42;2.00;99.90
8099;DHT22;4092;47.876;9.372;2022-12-07T01:58:11;2.00;99.90
8099;DHT22;4092;47.876;9.372;2022-12-07T02:00:38;2.00;99.90
8099;DHT22;4092;47.876;9.372;2022-12-07T02:03:09;2.00;99.90
8099;DHT22;4092;47.876;9.372;2022-12-07T02:05:40;1.90;99.90
8099;DHT22;4092;47.876;9.372;2022-12-07T02:08:09;1.90;99.90
8099;DHT22;4092;47.876;9.372;2022-12-07T02:10:37;1.90;99.90
8099;DHT22;4092;47.876;9.372;2022-12-07T02:13:08;1.90;99.90
8099;DHT22;4092;47.876;9.372;2022-12-07T02:15:45;1.90;99.90
8099;DHT22;4092;47.876;9.372;2022-12-07T02:18:17;1.80;99.90
8099;DHT22;4092;47.876;9.372;2022-12-07T02:20:54;1.90;99.90
8099;DHT22;4092;47.876;9.372;2022-12-07T02:23:41;1.90;99.90
8099;DHT22;4092;47.876;9.372;2022-12-07T02:29:13;1.80;99.90
8099;DHT22;4092;47.876;9.372;2022-12-07T02:31:46;1.80;99.90
8099;DHT22;4092;47.876;9.372;2022-12-07T02:34:21;1.80;99.90
8099;DHT22;4092;47.876;9.372;2022-12-07T02:36:55;1.80;99.90
8099;DHT22;4092;47.876;9.372;2022-12-07T02:39:31;1.80;99.90
8099;DHT22;4092;47.876;9.372;2022-12-07T02:42:04;1.90;99.90
8099;DHT22;4092;47.876;9.372;2022-12-07T02:44:36;1.80;99.90
8099;DHT22;4092;47.876;9.372;2022-12-07T02:47:05;1.80;99.90
8099;DHT22;4092;47.876;9.372;2022-12-07T02:49:34;1.80;99.90
8099;DHT22;4092;47.876;9.372;2022-12-07T02:52:03;1.70;99.90
8099;DHT22;4092;47.876;9.372;2022-12-07T02:54:30;1.70;99.90
8099;DHT22;4092;47.876;9.372;2022-12-07T02:57:02;1.70;99.90
8099;DHT22;4092;47.876;9.372;2022-12-07T02:59:46;1.70;99.90
8099;DHT22;4092;47.876;9.372;2022-12-07T03:02:25;1.70;99.90
8099;DHT22;4092;47.876;9.372;2022-12-07T03:05:03;1.70;99.90
8099;DHT22;4092;47.876;9.372;2022-12-07T03:07:37;1.70;99.90
8099;DHT22;4092;47.876;9.372;2022-12-07T03:10:12;1.70;99.90
8099;DHT22;4092;47.876;9.372;2022-12-07T03:12:46;1.70;99.90
8099;DHT22;4092;47.876;9.372;2022-12-07T03:15:21;1.70;99.90
8099;DHT22;4092;47.876;9.372;2022-12-07T03:17:53;1.70;99.90
8099;DHT22;4092;47.876;9.372;2022-12-07T03:20:22;1.70;99.90
8099;DHT22;4092;47.876;9.372;2022-12-07T03:22:51;1.70;99.90
8099;DHT22;4092;47.876;9.372;2022-12-07T03:25:19;1.70;99.90
8099;DHT22;4092;47.876;9.372;2022-12-07T03:27:51;1.70;99.90
8099;DHT22;4092;47.876;9.372;2022-12-07T03:30:24;1.70;99.90
8099;DHT22;4092;47.876;9.372;2022-12-07T03:32:59;1.70;99.90
8099;DHT22;4092;47.876;9.372;2022-12-07T03:35:32;1.80;99.90
8099;DHT22;4092;47.876;9.372;2022-12-07T03:38:08;1.70;99.90
8099;DHT22;4092;47.876;9.372;2022-12-07T03:40:43;1.70;99.90
8099;DHT22;4092;47.876;9.372;2022-12-07T03:43:11;1.70;99.90
8099;DHT22;4092;47.876;9.372;2022-12-07T03:45:41;1.70;99.90
8099;DHT22;4092;47.876;9.372;2022-12-07T03:48:13;1.80;99.90
8099;DHT22;4092;47.876;9.372;2022-12-07T03:50:49;1.80;99.90
8099;DHT22;4092;47.876;9.372;2022-12-07T03:53:20;1.80;99.90
8099;DHT22;4092;47.876;9.372;2022-12-07T03:55:49;1.80;99.90
8099;DHT22;4092;47.876;9.372;2022-12-07T03:58:19;1.70;99.90
8099;DHT22;4092;47.876;9.372;2022-12-07T04:00:49;1.70;99.90
8099;DHT22;4092;47.876;9.372;2022-12-07T04:03:16;1.80;99.90
8099;DHT22;4092;47.876;9.372;2022-12-07T04:05:44;1.80;99.90
8099;DHT22;4092;47.876;9.372;2022-12-07T04:08:11;1.80;99.90
8099;DHT22;4092;47.876;9.372;2022-12-07T04:10:38;1.80;99.90
8099;DHT22;4092;47.876;9.372;2022-12-07T04:13:05;1.90;99.90
8099;DHT22;4092;47.876;9.372;2022-12-07T04:15:32;1.80;99.90
8099;DHT22;4092;47.876;9.372;2022-12-07T04:18:01;1.80;99.90
8099;DHT22;4092;47.876;9.372;2022-12-07T04:20:28;1.80;99.90
8099;DHT22;4092;47.876;9.372;2022-12-07T04:22:55;1.80;99.90
8099;DHT22;4092;47.876;9.372;2022-12-07T04:25:22;1.80;99.90
8099;DHT22;4092;47.876;9.372;2022-12-07T04:27:49;1.80;99.90
8099;DHT22;4092;47.876;9.372;2022-12-07T04:30:16;1.70;99.90
8099;DHT22;4092;47.876;9.372;2022-12-07T04:32:43;1.70;99.90
8099;DHT22;4092;47.876;9.372;2022-12-07T04:35:11;1.80;99.90
8099;DHT22;4092;47.876;9.372;2022-12-07T04:37:38;1.80;99.90
8099;DHT22;4092;47.876;9.372;2022-12-07T04:40:07;1.80;99.90
8099;DHT22;4092;47.876;9.372;2022-12-07T04:42:36;1.70;99.90
8099;DHT22;4092;47.876;9.372;2022-12-07T04:45:04;1.80;99.90
8099;DHT22;4092;47.876;9.372;2022-12-07T04:47:31;1.80;99.90
8099;DHT22;4092;47.876;9.372;2022-12-07T04:49:58;1.70;99.90
8099;DHT22;4092;47.876;9.372;2022-12-07T04:52:26;1.80;99.90
8099;DHT22;4092;47.876;9.372;2022-12-07T04:54:53;1.70;99.90
8099;DHT22;4092;47.876;9.372;2022-12-07T04:57:20;1.70;99.90
8099;DHT22;4092;47.876;9.372;2022-12-07T04:59:47;1.70;99.90
8099;DHT22;4092;47.876;9.372;2022-12-07T05:02:14;1.70;99.90
8099;DHT22;4092;47.876;9.372;2022-12-07T05:04:41;1.60;99.90
8099;DHT22;4092;47.876;9.372;2022-12-07T05:07:08;1.70;99.90
8099;DHT22;4092;47.876;9.372;2022-12-07T05:09:37;1.60;99.90
8099;DHT22;4092;47.876;9.372;2022-12-07T05:12:04;1.70;99.90
8099;DHT22;4092;47.876;9.372;2022-12-07T05:14:31;1.60;99.90
8099;DHT22;4092;47.876;9.372;2022-12-07T05:16:58;1.60;99.90
8099;DHT22;4092;47.876;9.372;2022-12-07T05:19:25;1.60;99.90
8099;DHT22;4092;47.876;9.372;2022-12-07T05:21:52;1.60;99.90
8099;DHT22;4092;47.876;9.372;2022-12-07T05:24:19;1.60;99.90
8099;DHT22;4092;47.876;9.372;2022-12-07T05:26:48;1.70;99.90
8099;DHT22;4092;47.876;9.372;2022-12-07T05:29:16;1.60;99.90
8099;DHT22;4092;47.876;9.372;2022-12-07T05:31:44;1.60;99.90
8099;DHT22;4092;47.876;9.372;2022-12-07T05:34:11;1.60;99.90
8099;DHT22;4092;47.876;9.372;2022-12-07T05:36:39;1.70;99.90
8099;DHT22;4092;47.876;9.372;2022-12-07T05:39:07;1.70;99.90
8099;DHT22;4092;47.876;9.372;2022-12-07T05:41:34;1.70;99.90
8099;DHT22;4092;47.876;9.372;2022-12-07T05:44:21;1.70;99.90
8099;DHT22;4092;47.876;9.372;2022-12-07T05:46:48;1.70;99.90
8099;DHT22;4092;47.876;9.372;2022-12-07T05:49:15;1.70;99.90
8099;DHT22;4092;47.876;9.372;2022-12-07T05:51:42;1.70;99.90
8099;DHT22;4092;47.876;9.372;2022-12-07T05:54:09;1.70;99.90
8099;DHT22;4092;47.876;9.372;2022-12-07T05:56:36;1.70;99.90
8099;DHT22;4092;47.876;9.372;2022-12-07T05:59:03;1.70;99.90
8099;DHT22;4092;47.876;9.372;2022-12-07T06:01:50;1.70;99.90
8099;DHT22;4092;47.876;9.372;2022-12-07T06:04:18;1.70;99.90
8099;DHT22;4092;47.876;9.372;2022-12-07T06:06:45;1.70;99.90
8099;DHT22;4092;47.876;9.372;2022-12-07T06:09:12;1.70;99.90
8099;DHT22;4092;47.876;9.372;2022-12-07T06:11:42;1.80;99.90
8099;DHT22;4092;47.876;9.372;2022-12-07T06:14:27;1.80;99.90
8099;DHT22;4092;47.876;9.372;2022-12-07T06:16:55;1.70;99.90
8099;DHT22;4092;47.876;9.372;2022-12-07T06:19:22;1.80;99.90
8099;DHT22;4092;47.876;9.372;2022-12-07T06:21:49;1.70;99.90
8099;DHT22;4092;47.876;9.372;2022-12-07T06:24:17;1.70;99.90
8099;DHT22;4092;47.876;9.372;2022-12-07T06:26:45;1.70;99.90
8099;DHT22;4092;47.876;9.372;2022-12-07T06:29:12;1.80;99.90
8099;DHT22;4092;47.876;9.372;2022-12-07T06:31:39;1.80;99.90
8099;DHT22;4092;47.876;9.372;2022-12-07T06:34:10;1.80;99.90
8099;DHT22;4092;47.876;9.372;2022-12-07T06:36:37;1.70;99.90
8099;DHT22;4092;47.876;9.372;2022-12-07T06:39:05;1.80;99.90
8099;DHT22;4092;47.876;9.372;2022-12-07T06:41:33;1.70;99.90
8099;DHT22;4092;47.876;9.372;2022-12-07T06:44:00;1.70;99.90
8099;DHT22;4092;47.876;9.372;2022-12-07T06:46:27;1.70;99.90
8099;DHT22;4092;47.876;9.372;2022-12-07T06:48:54;1.70;99.90
8099;DHT22;4092;47.876;9.372;2022-12-07T06:51:22;1.70;99.90
8099;DHT22;4092;47.876;9.372;2022-12-07T06:53:49;1.70;99.90
8099;DHT22;4092;47.876;9.372;2022-12-07T06:56:16;1.70;99.90
8099;DHT22;4092;47.876;9.372;2022-12-07T06:58:43;1.70;99.90
8099;DHT22;4092;47.876;9.372;2022-12-07T07:01:11;1.60;99.90
8099;DHT22;4092;47.876;9.372;2022-12-07T07:03:38;1.70;99.90
8099;DHT22;4092;47.876;9.372;2022-12-07T07:06:06;1.60;99.90
8099;DHT22;4092;47.876;9.372;2022-12-07T07:08:35;1.60;99.90
8099;DHT22;4092;47.876;9.372;2022-12-07T07:11:02;1.60;99.90
8099;DHT22;4092;47.876;9.372;2022-12-07T07:13:30;1.60;99.90
8099;DHT22;4092;47.876;9.372;2022-12-07T07:15:57;1.60;99.90
8099;DHT22;4092;47.876;9.372;2022-12-07T07:18:24;1.60;99.90
8099;DHT22;4092;47.876;9.372;2022-12-07T07:20:52;1.60;99.90
8099;DHT22;4092;47.876;9.372;2022-12-07T07:23:19;1.60;99.90
8099;DHT22;4092;47.876;9.372;2022-12-07T07:25:48;1.60;99.90
8099;DHT22;4092;47.876;9.372;2022-12-07T07:28:16;1.70;99.90
8099;DHT22;4092;47.876;9.372;2022-12-07T07:30:43;1.80;99.90
8099;DHT22;4092;47.876;9.372;2022-12-07T07:33:10;1.90;99.90
8099;DHT22;4092;47.876;9.372;2022-12-07T07:35:38;1.90;99.90
8099;DHT22;4092;47.876;9.372;2022-12-07T07:38:06;2.00;99.90
8099;DHT22;4092;47.876;9.372;2022-12-07T07:40:33;2.00;99.90
8099;DHT22;4092;47.876;9.372;2022-12-07T07:43:01;2.10;99.90
8099;DHT22;4092;47.876;9.372;2022-12-07T07:45:29;2.10;99.90
8099;DHT22;4092;47.876;9.372;2022-12-07T07:47:55;2.10;99.90
8099;DHT22;4092;47.876;9.372;2022-12-07T07:50:23;2.20;99.90
8099;DHT22;4092;47.876;9.372;2022-12-07T07:52:50;2.20;99.90
8099;DHT22;4092;47.876;9.372;2022-12-07T07:55:18;2.20;99.90
8099;DHT22;4092;47.876;9.372;2022-12-07T07:57:45;2.20;99.90
8099;DHT22;4092;47.876;9.372;2022-12-07T08:00:14;2.30;99.90
8099;DHT22;4092;47.876;9.372;2022-12-07T08:02:42;2.20;99.90
8099;DHT22;4092;47.876;9.372;2022-12-07T08:05:11;2.20;99.90
8099;DHT22;4092;47.876;9.372;2022-12-07T08:07:38;2.10;99.90
8099;DHT22;4092;47.876;9.372;2022-12-07T08:10:06;2.10;99.90
8099;DHT22;4092;47.876;9.372;2022-12-07T08:12:36;2.10;99.90
8099;DHT22;4092;47.876;9.372;2022-12-07T08:15:03;2.10;99.90
8099;DHT22;4092;47.876;9.372;2022-12-07T08:17:33;2.20;99.90
8099;DHT22;4092;47.876;9.372;2022-12-07T08:20:00;2.20;99.90
8099;DHT22;4092;47.876;9.372;2022-12-07T08:22:27;2.20;99.90
8099;DHT22;4092;47.876;9.372;2022-12-07T08:24:54;2.10;99.90
8099;DHT22;4092;47.876;9.372;2022-12-07T08:27:21;2.10;99.90
8099;DHT22;4092;47.876;9.372;2022-12-07T08:29:52;2.10;99.90
8099;DHT22;4092;47.876;9.372;2022-12-07T08:32:19;2.10;99.90
8099;DHT22;4092;47.876;9.372;2022-12-07T08:34:47;2.10;99.90
8099;DHT22;4092;47.876;9.372;2022-12-07T08:37:15;2.10;99.90
8099;DHT22;4092;47.876;9.372;2022-12-07T08:39:42;2.10;99.90
8099;DHT22;4092;47.876;9.372;2022-12-07T08:42:09;2.10;99.90
8099;DHT22;4092;47.876;9.372;2022-12-07T08:44:36;2.10;99.90
8099;DHT22;4092;47.876;9.372;2022-12-07T08:47:06;2.20;99.90
8099;DHT22;4092;47.876;9.372;2022-12-07T08:49:37;2.20;99.90
8099;DHT22;4092;47.876;9.372;2022-12-07T08:52:07;2.30;99.90
8099;DHT22;4092;47.876;9.372;2022-12-07T08:54:35;2.30;99.90
8099;DHT22;4092;47.876;9.372;2022-12-07T08:57:03;2.40;99.90
8099;DHT22;4092;47.876;9.372;2022-12-07T08:59:33;2.40;99.90
8099;DHT22;4092;47.876;9.372;2022-12-07T09:02:01;2.30;99.90
8099;DHT22;4092;47.876;9.372;2022-12-07T09:04:28;2.30;99.90
8099;DHT22;4092;47.876;9.372;2022-12-07T09:06:55;2.30;99.90
8099;DHT22;4092;47.876;9.372;2022-12-07T09:09:24;2.30;99.90
8099;DHT22;4092;47.876;9.372;2022-12-07T09:11:51;2.40;99.90
8099;DHT22;4092;47.876;9.372;2022-12-07T09:14:18;2.40;99.90
8099;DHT22;4092;47.876;9.372;2022-12-07T09:16:45;2.40;99.90
8099;DHT22;4092;47.876;9.372;2022-12-07T09:19:12;2.40;99.90
8099;DHT22;4092;47.876;9.372;2022-12-07T09:21:39;2.50;99.90
8099;DHT22;4092;47.876;9.372;2022-12-07T09:24:07;2.60;99.90
8099;DHT22;4092;47.876;9.372;2022-12-07T09:26:36;2.60;99.90
8099;DHT22;4092;47.876;9.372;2022-12-07T09:29:04;2.70;99.90
8099;DHT22;4092;47.876;9.372;2022-12-07T09:31:31;2.80;99.90
8099;DHT22;4092;47.876;9.372;2022-12-07T09:34:00;2.80;99.90
8099;DHT22;4092;47.876;9.372;2022-12-07T09:36:27;2.90;99.90
8099;DHT22;4092;47.876;9.372;2022-12-07T09:38:55;2.90;99.90
8099;DHT22;4092;47.876;9.372;2022-12-07T09:41:23;3.00;99.90
8099;DHT22;4092;47.876;9.372;2022-12-07T09:43:52;3.00;99.90
8099;DHT22;4092;47.876;9.372;2022-12-07T09:46:20;3.00;99.90
8099;DHT22;4092;47.876;9.372;2022-12-07T09:48:48;2.90;99.90
8099;DHT22;4092;47.876;9.372;2022-12-07T09:51:18;2.80;99.90
8099;DHT22;4092;47.876;9.372;2022-12-07T09:53:47;2.80;99.90
8099;DHT22;4092;47.876;9.372;2022-12-07T09:56:16;2.80;99.90
8099;DHT22;4092;47.876;9.372;2022-12-07T09:58:44;2.80;99.90
8099;DHT22;4092;47.876;9.372;2022-12-07T10:01:15;2.80;99.90
8099;DHT22;4092;47.876;9.372;2022-12-07T10:03:58;2.70;99.90
8099;DHT22;4092;47.876;9.372;2022-12-07T10:06:25;2.70;99.90
8099;DHT22;4092;47.876;9.372;2022-12-07T10:08:52;2.80;99.90
8099;DHT22;4092;47.876;9.372;2022-12-07T10:11:19;2.60;99.90
8099;DHT22;4092;47.876;9.372;2022-12-07T10:13:48;2.70;99.90
8099;DHT22;4092;47.876;9.372;2022-12-07T10:16:34;2.80;99.90
8099;DHT22;4092;47.876;9.372;2022-12-07T10:19:18;2.80;99.90
8099;DHT22;4092;47.876;9.372;2022-12-07T10:22:00;2.80;99.90
8099;DHT22;4092;47.876;9.372;2022-12-07T10:24:28;2.90;99.90
8099;DHT22;4092;47.876;9.372;2022-12-07T10:26:55;3.00;99.90
8099;DHT22;4092;47.876;9.372;2022-12-07T10:29:24;3.00;99.90
8099;DHT22;4092;47.876;9.372;2022-12-07T10:31:57;3.10;99.90
8099;DHT22;4092;47.876;9.372;2022-12-07T10:34:27;3.20;99.90
8099;DHT22;4092;47.876;9.372;2022-12-07T10:37:14;3.30;99.90
8099;DHT22;4092;47.876;9.372;2022-12-07T10:39:43;3.30;99.90
8099;DHT22;4092;47.876;9.372;2022-12-07T10:42:19;3.30;99.90
8099;DHT22;4092;47.876;9.372;2022-12-07T10:44:46;3.30;99.90
8099;DHT22;4092;47.876;9.372;2022-12-07T10:47:34;3.30;99.90
8099;DHT22;4092;47.876;9.372;2022-12-07T10:50:17;3.30;99.90
8099;DHT22;4092;47.876;9.372;2022-12-07T10:52:56;3.30;99.90
8099;DHT22;4092;47.876;9.372;2022-12-07T10:55:28;3.30;99.90
8099;DHT22;4092;47.876;9.372;2022-12-07T10:58:12;3.30;99.90
8099;DHT22;4092;47.876;9.372;2022-12-07T11:00:52;3.20;99.90
8099;DHT22;4092;47.876;9.372;2022-12-07T11:03:34;3.20;99.90
8099;DHT22;4092;47.876;9.372;2022-12-07T11:06:14;3.00;99.90
8099;DHT22;4092;47.876;9.372;2022-12-07T11:08:52;3.10;99.90
8099;DHT22;4092;47.876;9.372;2022-12-07T11:11:27;3.20;99.90
8099;DHT22;4092;47.876;9.372;2022-12-07T11:14:03;3.20;99.90
8099;DHT22;4092;47.876;9.372;2022-12-07T11:16:41;3.20;99.90
8099;DHT22;4092;47.876;9.372;2022-12-07T11:19:28;3.10;99.90
8099;DHT22;4092;47.876;9.372;2022-12-07T11:22:03;3.10;99.90
8099;DHT22;4092;47.876;9.372;2022-12-07T11:24:39;3.00;99.90
8099;DHT22;4092;47.876;9.372;2022-12-07T11:27:14;2.90;99.90
8099;DHT22;4092;47.876;9.372;2022-12-07T11:30:03;2.90;99.90
8099;DHT22;4092;47.876;9.372;2022-12-07T11:32:45;2.90;99.90
8099;DHT22;4092;47.876;9.372;2022-12-07T11:35:26;2.90;99.90
8099;DHT22;4092;47.876;9.372;2022-12-07T11:38:00;3.00;99.90
8099;DHT22;4092;47.876;9.372;2022-12-07T11:40:31;3.10;99.90
8099;DHT22;4092;47.876;9.372;2022-12-07T11:43:05;3.20;99.90
8099;DHT22;4092;47.876;9.372;2022-12-07T11:45:40;3.10;99.90
8099;DHT22;4092;47.876;9.372;2022-12-07T11:48:11;3.10;99.90
8099;DHT22;4092;47.876;9.372;2022-12-07T11:50:44;3.20;99.90
8099;DHT22;4092;47.876;9.372;2022-12-07T11:53:17;3.10;99.90
8099;DHT22;4092;47.876;9.372;2022-12-07T11:55:49;3.00;99.90
8099;DHT22;4092;47.876;9.372;2022-12-07T12:01:18;3.00;99.90
8099;DHT22;4092;47.876;9.372;2022-12-07T12:03:52;2.90;99.90
8099;DHT22;4092;47.876;9.372;2022-12-07T12:06:21;2.80;99.90
8099;DHT22;4092;47.876;9.372;2022-12-07T12:08:51;2.90;99.90
8099;DHT22;4092;47.876;9.372;2022-12-07T12:11:36;3.00;99.90
8099;DHT22;4092;47.876;9.372;2022-12-07T12:14:24;3.10;99.90
8099;DHT22;4092;47.876;9.372;2022-12-07T12:17:08;3.10;99.90
8099;DHT22;4092;47.876;9.372;2022-12-07T12:19:41;3.10;99.90
8099;DHT22;4092;47.876;9.372;2022-12-07T12:22:15;3.10;99.90
8099;DHT22;4092;47.876;9.372;2022-12-07T12:24:46;3.10;99.90
8099;DHT22;4092;47.876;9.372;2022-12-07T12:27:22;3.10;99.90
8099;DHT22;4092;47.876;9.372;2022-12-07T12:29:53;3.00;99.90
8099;DHT22;4092;47.876;9.372;2022-12-07T12:32:23;3.10;99.90
8099;DHT22;4092;47.876;9.372;2022-12-07T12:35:17;3.00;99.90
8099;DHT22;4092;47.876;9.372;2022-12-07T12:37:47;2.90;99.90
8099;DHT22;4092;47.876;9.372;2022-12-07T12:43:45;2.80;99.90
8099;DHT22;4092;47.876;9.372;2022-12-07T12:46:48;2.90;99.90
8099;DHT22;4092;47.876;9.372;2022-12-07T12:49:34;2.90;99.90
8099;DHT22;4092;47.876;9.372;2022-12-07T12:55:16;2.90;99.90
8099;DHT22;4092;47.876;9.372;2022-12-07T12:57:47;2.90;99.90
8099;DHT22;4092;47.876;9.372;2022-12-07T13:00:21;3.00;99.90
8099;DHT22;4092;47.876;9.372;2022-12-07T13:02:49;2.90;99.90
8099;DHT22;4092;47.876;9.372;2022-12-07T13:05:19;2.90;99.90
8099;DHT22;4092;47.876;9.372;2022-12-07T13:07:54;2.90;99.90
8099;DHT22;4092;47.876;9.372;2022-12-07T13:10:42;3.00;99.90
8099;DHT22;4092;47.876;9.372;2022-12-07T13:13:29;3.00;99.90
8099;DHT22;4092;47.876;9.372;2022-12-07T13:18:56;3.10;99.90
8099;DHT22;4092;47.876;9.372;2022-12-07T13:21:42;3.10;99.90
8099;DHT22;4092;47.876;9.372;2022-12-07T13:24:12;3.00;99.90
8099;DHT22;4092;47.876;9.372;2022-12-07T13:26:42;3.00;99.90
8099;DHT22;4092;47.876;9.372;2022-12-07T13:29:13;3.00;99.90
8099;DHT22;4092;47.876;9.372;2022-12-07T13:31:42;3.00;99.90
8099;DHT22;4092;47.876;9.372;2022-12-07T13:34:36;3.00;99.90
8099;DHT22;4092;47.876;9.372;2022-12-07T13:37:12;3.00;99.90
8099;DHT22;4092;47.876;9.372;2022-12-07T13:39:46;3.10;99.90
8099;DHT22;4092;47.876;9.372;2022-12-07T13:42:22;2.90;99.90
8099;DHT22;4092;47.876;9.372;2022-12-07T13:44:51;2.90;99.90
8099;DHT22;4092;47.876;9.372;2022-12-07T13:47:23;3.00;99.90
8099;DHT22;4092;47.876;9.372;2022-12-07T13:49:54;2.90;99.90
8099;DHT22;4092;47.876;9.372;2022-12-07T13:52:24;2.90;99.90
8099;DHT22;4092;47.876;9.372;2022-12-07T13:54:57;2.90;99.90
8099;DHT22;4092;47.876;9.372;2022-12-07T13:57:27;2.80;99.90
8099;DHT22;4092;47.876;9.372;2022-12-07T13:59:56;2.80;99.90
8099;DHT22;4092;47.876;9.372;2022-12-07T14:02:26;2.80;99.90
8099;DHT22;4092;47.876;9.372;2022-12-07T14:05:07;2.80;99.90
8099;DHT22;4092;47.876;9.372;2022-12-07T14:07:34;2.80;99.90
8099;DHT22;4092;47.876;9.372;2022-12-07T14:10:04;2.80;99.90
8099;DHT22;4092;47.876;9.372;2022-12-07T14:12:36;2.70;99.90
8099;DHT22;4092;47.876;9.372;2022-12-07T14:15:04;2.60;99.90
8099;DHT22;4092;47.876;9.372;2022-12-07T14:17:31;2.60;99.90
8099;DHT22;4092;47.876;9.372;2022-12-07T14:19:59;2.60;99.90
8099;DHT22;4092;47.876;9.372;2022-12-07T14:22:32;2.60;99.90
8099;DHT22;4092;47.876;9.372;2022-12-07T14:25:13;2.60;99.90
8099;DHT22;4092;47.876;9.372;2022-12-07T14:27:50;2.50;99.90
8099;DHT22;4092;47.876;9.372;2022-12-07T14:30:19;2.60;99.90
8099;DHT22;4092;47.876;9.372;2022-12-07T14:32:48;2.60;99.90
8099;DHT22;4092;47.876;9.372;2022-12-07T14:35:18;2.60;99.90
8099;DHT22;4092;47.876;9.372;2022-12-07T14:37:47;2.50;99.90
8099;DHT22;4092;47.876;9.372;2022-12-07T14:40:16;2.50;99.90
8099;DHT22;4092;47.876;9.372;2022-12-07T14:42:45;2.40;99.90
8099;DHT22;4092;47.876;9.372;2022-12-07T14:45:16;2.30;99.90
8099;DHT22;4092;47.876;9.372;2022-12-07T14:47:44;2.30;99.90
8099;DHT22;4092;47.876;9.372;2022-12-07T14:50:12;2.30;99.90
8099;DHT22;4092;47.876;9.372;2022-12-07T14:52:41;2.40;99.90
8099;DHT22;4092;47.876;9.372;2022-12-07T14:55:13;2.40;99.90
8099;DHT22;4092;47.876;9.372;2022-12-07T14:57:41;2.40;99.90
8099;DHT22;4092;47.876;9.372;2022-12-07T15:00:14;2.30;99.90
8099;DHT22;4092;47.876;9.372;2022-12-07T15:02:47;2.40;99.90
8099;DHT22;4092;47.876;9.372;2022-12-07T15:05:16;2.30;99.90
8099;DHT22;4092;47.876;9.372;2022-12-07T15:07:45;2.20;99.90
8099;DHT22;4092;47.876;9.372;2022-12-07T15:10:17;2.20;99.90
8099;DHT22;4092;47.876;9.372;2022-12-07T15:12:45;2.10;99.90
8099;DHT22;4092;47.876;9.372;2022-12-07T15:15:12;2.00;99.90
8099;DHT22;4092;47.876;9.372;2022-12-07T15:17:41;2.00;99.90
8099;DHT22;4092;47.876;9.372;2022-12-07T15:20:11;1.90;99.90
8099;DHT22;4092;47.876;9.372;2022-12-07T15:22:38;1.90;99.90
8099;DHT22;4092;47.876;9.372;2022-12-07T15:25:06;1.80;99.90
8099;DHT22;4092;47.876;9.372;2022-12-07T15:27:33;1.70;99.90
8099;DHT22;4092;47.876;9.372;2022-12-07T15:30:00;1.70;99.90
8099;DHT22;4092;47.876;9.372;2022-12-07T15:32:27;1.70;99.90
8099;DHT22;4092;47.876;9.372;2022-12-07T15:34:55;1.70;99.90
8099;DHT22;4092;47.876;9.372;2022-12-07T15:37:22;1.70;99.90
8099;DHT22;4092;47.876;9.372;2022-12-07T15:39:49;1.70;99.90
8099;DHT22;4092;47.876;9.372;2022-12-07T15:42:16;1.70;99.90
8099;DHT22;4092;47.876;9.372;2022-12-07T15:44:43;1.60;99.90
8099;DHT22;4092;47.876;9.372;2022-12-07T15:47:28;1.50;99.90
8099;DHT22;4092;47.876;9.372;2022-12-07T15:49:56;1.60;99.90
8099;DHT22;4092;47.876;9.372;2022-12-07T15:52:23;1.40;99.90
8099;DHT22;4092;47.876;9.372;2022-12-07T15:54:50;1.30;99.90
8099;DHT22;4092;47.876;9.372;2022-12-07T15:57:17;1.30;99.90
8099;DHT22;4092;47.876;9.372;2022-12-07T15:59:44;1.30;99.90
8099;DHT22;4092;47.876;9.372;2022-12-07T16:02:11;1.20;99.90
8099;DHT22;4092;47.876;9.372;2022-12-07T16:04:38;1.20;99.90
8099;DHT22;4092;47.876;9.372;2022-12-07T16:07:07;1.10;99.90
8099;DHT22;4092;47.876;9.372;2022-12-07T16:09:35;1.00;99.90
8099;DHT22;4092;47.876;9.372;2022-12-07T16:12:03;1.00;99.90
8099;DHT22;4092;47.876;9.372;2022-12-07T16:14:30;0.80;99.90
8099;DHT22;4092;47.876;9.372;2022-12-07T16:16:58;0.80;99.90
8099;DHT22;4092;47.876;9.372;2022-12-07T16:19:25;0.80;99.90
8099;DHT22;4092;47.876;9.372;2022-12-07T16:21:53;0.80;99.90
8099;DHT22;4092;47.876;9.372;2022-12-07T16:24:21;0.90;99.90
8099;DHT22;4092;47.876;9.372;2022-12-07T16:26:48;0.90;99.90
8099;DHT22;4092;47.876;9.372;2022-12-07T16:29:17;0.90;99.90
8099;DHT22;4092;47.876;9.372;2022-12-07T16:31:44;0.80;99.90
8099;DHT22;4092;47.876;9.372;2022-12-07T16:34:11;0.90;99.90
8099;DHT22;4092;47.876;9.372;2022-12-07T16:36:39;0.80;99.90
8099;DHT22;4092;47.876;9.372;2022-12-07T16:39:08;0.80;99.90
8099;DHT22;4092;47.876;9.372;2022-12-07T16:41:36;0.70;99.90
8099;DHT22;4092;47.876;9.372;2022-12-07T16:44:05;0.60;99.90
8099;DHT22;4092;47.876;9.372;2022-12-07T16:46:33;0.40;99.90
8099;DHT22;4092;47.876;9.372;2022-12-07T16:49:01;0.30;99.90
8099;DHT22;4092;47.876;9.372;2022-12-07T16:51:29;0.40;99.90
8099;DHT22;4092;47.876;9.372;2022-12-07T16:53:56;0.30;99.90
8099;DHT22;4092;47.876;9.372;2022-12-07T16:56:23;0.30;99.90